createdAt,value
2023-03-21T00:00:40.048Z,101251.53
2023-03-21T00:03:07.839Z,101247.31
2023-03-21T00:05:39.562Z,101242.22
2023-03-21T00:08:07.027Z,101241.72
2023-03-21T00:10:43.409Z,101240.91
2023-03-21T00:13:13.371Z,101238.97
2023-03-21T00:16:04.724Z,101234.94
2023-03-21T00:18:41.811Z,101233.00
2023-03-21T00:21:43.919Z,101234.84
2023-03-21T00:24:02.825Z,101227.56
2023-03-21T00:26:30.398Z,101216.13
2023-03-21T00:28:58.355Z,101217.19
2023-03-21T00:31:25.945Z,101220.56
2023-03-21T00:33:53.212Z,101218.00
2023-03-21T00:36:21.625Z,101216.75
2023-03-21T00:38:48.947Z,101206.84
2023-03-21T00:41:26.285Z,101210.94
2023-03-21T00:44:04.112Z,101201.31
2023-03-21T00:46:42.789Z,101202.44
2023-03-21T00:49:12.791Z,101202.91
2023-03-21T00:51:43.712Z,101197.47
2023-03-21T00:54:13.035Z,101190.03
2023-03-21T00:56:41.559Z,101188.22
2023-03-21T00:59:08.954Z,101190.91
2023-03-21T01:01:37.330Z,101183.28
2023-03-21T01:04:11.145Z,101190.63
2023-03-21T01:06:40.486Z,101178.59
2023-03-21T01:09:13.267Z,101173.41
2023-03-21T01:11:42.168Z,101174.72
2023-03-21T01:14:25.207Z,101166.66
2023-03-21T01:16:54.572Z,101166.97
2023-03-21T01:19:40.712Z,101168.56
2023-03-21T01:22:13.871Z,101155.84
2023-03-21T01:24:52.491Z,101158.50
2023-03-21T01:27:22.934Z,101159.97
2023-03-21T01:29:50.380Z,101150.59
2023-03-21T01:32:17.777Z,101151.41
2023-03-21T01:34:45.493Z,101152.38
2023-03-21T01:37:12.900Z,101150.28
2023-03-21T01:39:46.501Z,101154.91
2023-03-21T01:42:14.272Z,101147.06
2023-03-21T01:44:56.806Z,101145.44
2023-03-21T01:47:26.168Z,101147.38
2023-03-21T01:50:17.256Z,101145.53
2023-03-21T01:52:56.864Z,101147.22
2023-03-21T01:55:28.617Z,101141.03
2023-03-21T01:58:06.862Z,101137.38
2023-03-21T02:00:55.366Z,101129.13
2023-03-21T02:03:38.630Z,101126.22
2023-03-21T02:06:43.966Z,101128.78
2023-03-21T02:09:44.601Z,101128.78
2023-03-21T02:12:18.736Z,101125.41
2023-03-21T02:14:49.641Z,101124.81
2023-03-21T02:18:02.417Z,101126.75
2023-03-21T02:21:13.293Z,101118.19
2023-03-21T02:24:42.687Z,101117.38
2023-03-21T02:27:21.988Z,101121.84
2023-03-21T02:30:29.397Z,101120.63
2023-03-21T02:33:16.062Z,101119.94
2023-03-21T02:36:13.564Z,101110.53
2023-03-21T02:38:56.166Z,101117.69
2023-03-21T02:41:49.555Z,101116.63
2023-03-21T02:44:50.422Z,101115.22
2023-03-21T02:47:26.881Z,101117.06
2023-03-21T02:50:12.420Z,101117.56
2023-03-21T02:52:44.403Z,101111.03
2023-03-21T02:55:16.575Z,101109.66
2023-03-21T02:57:53.909Z,101102.72
2023-03-21T03:00:29.662Z,101099.09
2023-03-21T03:03:08.832Z,101093.16
2023-03-21T03:05:47.158Z,101089.25
2023-03-21T03:08:59.783Z,101090.63
2023-03-21T03:11:39.239Z,101092.25
2023-03-21T03:14:53.126Z,101091.06
2023-03-21T03:17:40.335Z,101093.34
2023-03-21T03:20:16.162Z,101093.44
2023-03-21T03:22:57.572Z,101098.78
2023-03-21T03:25:44.215Z,101096.06
2023-03-21T03:28:21.383Z,101096.75
2023-03-21T03:31:07.572Z,101091.53
2023-03-21T03:33:46.584Z,101080.00
2023-03-21T03:36:33.567Z,101083.59
2023-03-21T03:39:11.348Z,101082.00
2023-03-21T03:44:38.760Z,101096.88
2023-03-21T03:48:06.185Z,101099.25
2023-03-21T03:50:51.111Z,101107.53
2023-03-21T03:53:32.756Z,101105.22
2023-03-21T03:56:01.551Z,101100.38
2023-03-21T03:58:44.629Z,101104.59
2023-03-21T04:01:15.444Z,101099.91
2023-03-21T04:03:50.439Z,101105.44
2023-03-21T04:06:19.940Z,101099.09
2023-03-21T04:08:48.950Z,101102.34
2023-03-21T04:11:16.551Z,101102.13
2023-03-21T04:13:48.566Z,101102.94
2023-03-21T04:16:23.323Z,101090.94
2023-03-21T04:18:52.463Z,101088.84
2023-03-21T04:21:21.628Z,101092.28
2023-03-21T04:23:49.192Z,101094.09
2023-03-21T04:26:17.513Z,101088.84
2023-03-21T04:29:00.826Z,101089.44
2023-03-21T04:31:50.011Z,101077.09
2023-03-21T04:34:18.160Z,101087.44
2023-03-21T04:36:50.906Z,101087.34
2023-03-21T04:39:19.584Z,101083.81
2023-03-21T04:41:50.029Z,101082.00
2023-03-21T04:44:18.542Z,101089.66
2023-03-21T04:46:46.912Z,101090.66
2023-03-21T04:49:15.569Z,101087.31
2023-03-21T04:51:45.410Z,101097.09
2023-03-21T04:54:18.664Z,101096.69
2023-03-21T04:56:46.199Z,101091.22
2023-03-21T04:59:16.668Z,101088.63
2023-03-21T05:01:44.952Z,101088.94
2023-03-21T05:04:14.256Z,101087.31
2023-03-21T05:06:45.180Z,101098.19
2023-03-21T05:09:13.255Z,101096.06
2023-03-21T05:11:41.648Z,101091.97
2023-03-21T05:14:15.401Z,101087.63
2023-03-21T05:16:55.477Z,101092.56
2023-03-21T05:19:34.799Z,101088.06
2023-03-21T05:22:06.339Z,101095.50
2023-03-21T05:24:33.948Z,101094.59
2023-03-21T05:27:03.600Z,101097.59
2023-03-21T05:29:38.423Z,101090.25
2023-03-21T05:32:07.163Z,101095.97
2023-03-21T05:34:34.439Z,101092.38
2023-03-21T05:37:02.374Z,101091.16
2023-03-21T05:39:50.891Z,101096.59
2023-03-21T05:42:25.164Z,101092.75
2023-03-21T05:44:52.946Z,101097.72
2023-03-21T05:47:25.652Z,101098.31
2023-03-21T05:49:54.713Z,101096.66
2023-03-21T05:52:23.520Z,101099.00
2023-03-21T05:54:51.258Z,101095.66
2023-03-21T05:57:22.667Z,101094.56
2023-03-21T05:59:57.887Z,101088.91
2023-03-21T06:02:25.309Z,101090.50
2023-03-21T06:04:53.648Z,101096.41
2023-03-21T06:07:22.096Z,101104.94
2023-03-21T06:09:50.513Z,101102.00
2023-03-21T06:12:18.127Z,101110.19
2023-03-21T06:15:01.206Z,101102.50
2023-03-21T06:17:45.411Z,101098.16
2023-03-21T06:20:13.425Z,101097.22
2023-03-21T06:22:46.391Z,101095.50
2023-03-21T06:25:13.939Z,101089.50
2023-03-21T06:27:41.371Z,101101.63
2023-03-21T06:30:09.400Z,101104.13
2023-03-21T06:32:45.704Z,101099.41
2023-03-21T06:35:17.093Z,101098.06
2023-03-21T06:37:46.152Z,101105.31
2023-03-21T06:40:14.043Z,101107.03
2023-03-21T06:42:41.712Z,101102.28
2023-03-21T06:45:11.613Z,101106.47
2023-03-21T06:47:39.017Z,101100.16
2023-03-21T06:50:13.171Z,101103.66
2023-03-21T06:52:42.685Z,101104.53
2023-03-21T06:55:13.185Z,101105.75
2023-03-21T06:57:40.751Z,101107.59
2023-03-21T07:00:10.123Z,101106.19
2023-03-21T07:02:42.525Z,101104.00
2023-03-21T07:05:15.533Z,101098.22
2023-03-21T07:07:43.997Z,101108.75
2023-03-21T07:10:11.811Z,101104.50
2023-03-21T07:12:50.466Z,101097.53
2023-03-21T07:15:23.953Z,101099.50
2023-03-21T07:17:52.436Z,101099.22
2023-03-21T07:20:19.829Z,101092.81
2023-03-21T07:22:47.194Z,101098.50
2023-03-21T07:25:17.336Z,101088.03
2023-03-21T07:27:44.696Z,101104.78
2023-03-21T07:30:13.393Z,101102.97
2023-03-21T07:32:40.819Z,101105.47
2023-03-21T07:35:11.918Z,101105.50
2023-03-21T07:37:40.856Z,101111.38
2023-03-21T07:40:10.334Z,101107.16
2023-03-21T07:42:41.717Z,101110.41
2023-03-21T07:45:12.841Z,101106.41
2023-03-21T07:47:40.324Z,101104.06
2023-03-21T07:50:08.333Z,101099.19
2023-03-21T07:52:35.809Z,101109.16
2023-03-21T07:55:03.626Z,101108.03
2023-03-21T07:57:30.986Z,101102.50
2023-03-21T07:59:58.514Z,101110.69
2023-03-21T08:02:26.250Z,101111.53
2023-03-21T08:04:53.674Z,101123.44
2023-03-21T08:07:21.046Z,101120.63
2023-03-21T08:09:48.440Z,101116.59
2023-03-21T08:12:16.887Z,101117.66
2023-03-21T08:14:44.481Z,101111.84
2023-03-21T08:17:11.909Z,101115.34
2023-03-21T08:19:39.260Z,101116.66
2023-03-21T08:22:06.770Z,101118.13
2023-03-21T08:24:34.326Z,101114.16
2023-03-21T08:27:02.020Z,101109.97
2023-03-21T08:29:29.512Z,101111.53
2023-03-21T08:31:58.064Z,101105.56
2023-03-21T08:34:26.423Z,101109.97
2023-03-21T08:36:54.542Z,101109.44
2023-03-21T08:39:22.551Z,101118.34
2023-03-21T08:41:49.939Z,101113.06
2023-03-21T08:44:17.398Z,101112.94
2023-03-21T08:46:44.732Z,101105.72
2023-03-21T08:49:12.703Z,101114.09
2023-03-21T08:51:41.236Z,101103.66
2023-03-21T08:54:17.514Z,101104.03
2023-03-21T08:56:44.821Z,101108.47
2023-03-21T08:59:12.348Z,101110.75
2023-03-21T09:01:39.810Z,101111.59
2023-03-21T09:04:10.842Z,101114.69
2023-03-21T09:06:40.999Z,101115.78
2023-03-21T09:09:09.341Z,101111.03
2023-03-21T09:11:36.741Z,101108.09
2023-03-21T09:14:04.360Z,101098.59
2023-03-21T09:16:32.599Z,101101.53
2023-03-21T09:19:00.069Z,101106.78
2023-03-21T09:21:28.316Z,101108.59
2023-03-21T09:23:58.829Z,101111.84
2023-03-21T09:26:27.787Z,101120.25
2023-03-21T09:28:56.271Z,101103.78
2023-03-21T09:31:24.970Z,101111.53
2023-03-21T09:33:53.319Z,101112.97
2023-03-21T09:36:25.017Z,101105.31
2023-03-21T09:38:53.140Z,101099.00
2023-03-21T09:41:26.329Z,101099.81
2023-03-21T09:44:24.766Z,101109.72
2023-03-21T09:47:22.290Z,101104.88
2023-03-21T09:50:07.573Z,101109.56
2023-03-21T09:52:50.691Z,101101.78
2023-03-21T09:55:22.616Z,101105.09
2023-03-21T09:58:16.684Z,101100.28
2023-03-21T10:00:49.091Z,101095.56
2023-03-21T10:03:26.252Z,101100.53
2023-03-21T10:06:01.594Z,101090.44
2023-03-21T10:08:36.616Z,101090.53
2023-03-21T10:11:16.145Z,101087.56
2023-03-21T10:14:07.678Z,101089.81
2023-03-21T10:16:40.842Z,101083.47
2023-03-21T10:19:13.290Z,101084.28
2023-03-21T10:22:03.355Z,101075.66
2023-03-21T10:24:34.639Z,101078.50
2023-03-21T10:27:03.539Z,101082.69
2023-03-21T10:29:38.708Z,101081.41
2023-03-21T10:32:09.876Z,101082.31
2023-03-21T10:37:25.663Z,101071.38
2023-03-21T10:39:55.337Z,101074.81
2023-03-21T10:42:25.715Z,101064.06
2023-03-21T10:44:56.623Z,101064.72
2023-03-21T10:47:32.598Z,101070.16
2023-03-21T10:50:10.415Z,101060.00
2023-03-21T10:52:51.453Z,101063.09
2023-03-21T10:55:22.046Z,101070.69
2023-03-21T10:57:55.120Z,101069.19
2023-03-21T11:00:27.534Z,101067.31
2023-03-21T11:02:55.617Z,101068.22
2023-03-21T11:05:35.002Z,101067.63
2023-03-21T11:08:18.189Z,101064.16
2023-03-21T11:10:59.690Z,101064.06
2023-03-21T11:13:36.642Z,101069.63
2023-03-21T11:16:06.152Z,101061.63
2023-03-21T11:18:33.574Z,101065.28
2023-03-21T11:21:06.668Z,101067.06
2023-03-21T11:23:39.865Z,101060.13
2023-03-21T11:26:18.492Z,101047.84
2023-03-21T11:28:46.456Z,101046.38
2023-03-21T11:31:13.820Z,101043.03
2023-03-21T11:33:59.992Z,101042.16
2023-03-21T11:36:33.894Z,101040.28
2023-03-21T11:39:32.379Z,101032.78
2023-03-21T11:42:00.117Z,101022.00
2023-03-21T11:44:33.897Z,101008.94
2023-03-21T11:47:01.942Z,101021.81
2023-03-21T11:49:29.372Z,101013.56
2023-03-21T11:52:14.091Z,101004.16
2023-03-21T11:55:00.724Z,101001.09
2023-03-21T11:57:50.034Z,101002.41
2023-03-21T12:00:29.301Z,100990.69
2023-03-21T12:03:41.425Z,100990.78
2023-03-21T12:06:56.155Z,100991.34
2023-03-21T12:09:37.407Z,100988.16
2023-03-21T12:12:38.954Z,100982.19
2023-03-21T12:15:12.682Z,100982.66
2023-03-21T12:17:54.447Z,100982.66
2023-03-21T12:20:30.754Z,100985.25
2023-03-21T12:23:16.619Z,100986.06
2023-03-21T12:26:02.710Z,100973.47
2023-03-21T12:28:56.877Z,100966.66
2023-03-21T12:31:46.256Z,100958.44
2023-03-21T12:34:24.675Z,100960.19
2023-03-21T12:37:17.573Z,100959.03
2023-03-21T12:39:48.605Z,100950.69
2023-03-21T12:42:50.984Z,100942.38
2023-03-21T12:45:20.882Z,100947.00
2023-03-21T12:47:53.352Z,100940.53
2023-03-21T12:50:37.457Z,100933.88
2023-03-21T12:53:24.090Z,100925.22
2023-03-21T12:55:52.250Z,100930.28
2023-03-21T12:58:25.989Z,100928.78
2023-03-21T13:00:56.234Z,100931.81
2023-03-21T13:03:39.889Z,100934.16
2023-03-21T13:06:10.927Z,100923.19
2023-03-21T13:08:49.314Z,100918.91
2023-03-21T13:11:21.758Z,100910.69
2023-03-21T13:14:01.209Z,100918.81
2023-03-21T13:16:34.923Z,100913.22
2023-03-21T13:19:29.309Z,100905.34
2023-03-21T13:22:18.996Z,100907.66
2023-03-21T13:24:48.589Z,100907.50
2023-03-21T13:27:21.368Z,100898.28
2023-03-21T13:29:54.510Z,100900.16
2023-03-21T13:32:27.871Z,100901.41
2023-03-21T13:34:58.080Z,100898.84
2023-03-21T13:37:31.084Z,100891.16
2023-03-21T13:40:12.902Z,100890.72
2023-03-21T13:42:50.194Z,100878.41
2023-03-21T13:45:44.871Z,100882.91
2023-03-21T13:48:28.540Z,100868.25
2023-03-21T13:51:06.572Z,100869.06
2023-03-21T13:53:43.753Z,100870.81
2023-03-21T13:56:16.987Z,100856.00
2023-03-21T13:58:44.386Z,100852.94
2023-03-21T14:01:29.778Z,100850.31
2023-03-21T14:04:06.494Z,100845.91
2023-03-21T14:06:55.046Z,100849.84
2023-03-21T14:09:31.137Z,100840.75
2023-03-21T14:12:07.121Z,100843.84
2023-03-21T14:14:41.939Z,100837.63
2023-03-21T14:17:22.080Z,100824.31
2023-03-21T14:20:16.413Z,100825.25
2023-03-21T14:22:47.867Z,100831.34
2023-03-21T14:25:17.586Z,100817.97
2023-03-21T14:27:53.677Z,100823.44
2023-03-21T14:30:34.127Z,100821.06
2023-03-21T14:33:23.832Z,100821.38
2023-03-21T14:35:51.378Z,100816.25
2023-03-21T14:38:27.681Z,100812.19
2023-03-21T14:40:58.332Z,100802.06
2023-03-21T14:43:26.820Z,100801.69
2023-03-21T14:45:57.033Z,100794.47
2023-03-21T14:48:35.253Z,100790.13
2023-03-21T14:51:12.320Z,100792.19
2023-03-21T14:53:42.498Z,100788.03
2023-03-21T14:56:17.786Z,100795.66
2023-03-21T14:58:47.492Z,100797.38
2023-03-21T15:01:31.213Z,100787.88
2023-03-21T15:04:01.270Z,100797.00
2023-03-21T15:06:28.569Z,100796.19
2023-03-21T15:08:57.357Z,100797.38
2023-03-21T15:11:42.286Z,100788.28
2023-03-21T15:14:14.627Z,100787.88
2023-03-21T15:16:42.287Z,100787.09
2023-03-21T15:19:16.780Z,100787.50
2023-03-21T15:21:51.085Z,100785.09
2023-03-21T15:24:26.382Z,100795.41
2023-03-21T15:27:02.462Z,100797.25
2023-03-21T15:29:30.275Z,100797.75
2023-03-21T15:31:59.150Z,100788.97
2023-03-21T15:34:30.744Z,100794.50
2023-03-21T15:37:05.166Z,100789.34
2023-03-21T15:39:36.120Z,100784.97
2023-03-21T15:42:05.864Z,100794.00
2023-03-21T15:44:35.171Z,100788.44
2023-03-21T15:47:02.617Z,100787.63
2023-03-21T15:49:33.906Z,100788.06
2023-03-21T15:52:11.287Z,100785.59
2023-03-21T15:54:44.777Z,100788.00
2023-03-21T15:57:34.218Z,100777.75
2023-03-21T16:00:15.130Z,100778.38
2023-03-21T16:02:43.040Z,100779.84
2023-03-21T16:05:28.492Z,100783.84
2023-03-21T16:08:03.731Z,100777.47
2023-03-21T16:10:34.152Z,100778.63
2023-03-21T16:13:01.469Z,100780.19
2023-03-21T16:15:29.313Z,100789.66
2023-03-21T16:17:59.123Z,100780.22
2023-03-21T16:20:32.682Z,100777.56
2023-03-21T16:23:01.263Z,100779.50
2023-03-21T16:25:31.076Z,100774.00
2023-03-21T16:27:58.837Z,100772.72
2023-03-21T16:30:26.266Z,100774.94
2023-03-21T16:32:53.596Z,100782.09
2023-03-21T16:35:23.436Z,100782.84
2023-03-21T16:37:51.016Z,100776.44
2023-03-21T16:40:28.120Z,100774.41
2023-03-21T16:42:55.921Z,100779.44
2023-03-21T16:45:23.615Z,100779.00
2023-03-21T16:47:51.753Z,100781.47
2023-03-21T16:50:43.021Z,100783.97
2023-03-21T16:53:10.529Z,100780.84
2023-03-21T16:55:38.917Z,100791.09
2023-03-21T16:58:06.407Z,100785.16
2023-03-21T17:00:33.888Z,100786.63
2023-03-21T17:03:03.041Z,100794.88
2023-03-21T17:05:30.837Z,100784.50
2023-03-21T17:08:02.015Z,100792.16
2023-03-21T17:10:31.078Z,100792.09
2023-03-21T17:12:58.858Z,100793.16
2023-03-21T17:15:26.214Z,100790.59
2023-03-21T17:17:55.624Z,100793.47
2023-03-21T17:20:28.721Z,100788.31
2023-03-21T17:22:55.993Z,100793.19
2023-03-21T17:25:23.450Z,100793.53
2023-03-21T17:27:53.033Z,100792.66
2023-03-21T17:30:30.917Z,100788.84
2023-03-21T17:32:58.867Z,100796.97
2023-03-21T17:35:27.534Z,100794.06
2023-03-21T17:37:58.409Z,100800.63
2023-03-21T17:40:28.878Z,100799.69
2023-03-21T17:42:57.313Z,100790.03
2023-03-21T17:45:25.432Z,100788.97
2023-03-21T17:47:54.954Z,100792.78
2023-03-21T17:50:27.805Z,100794.72
2023-03-21T17:52:57.808Z,100788.13
2023-03-21T17:55:25.232Z,100796.13
2023-03-21T17:57:52.730Z,100794.72
2023-03-21T18:00:23.818Z,100792.00
2023-03-21T18:02:51.945Z,100796.25
2023-03-21T18:05:21.571Z,100796.13
2023-03-21T18:08:10.945Z,100799.06
2023-03-21T18:10:39.922Z,100796.50
2023-03-21T18:13:07.580Z,100797.13
2023-03-21T18:15:37.575Z,100797.41
2023-03-21T18:18:05.886Z,100796.63
2023-03-21T18:23:21.400Z,100803.19
2023-03-21T18:25:49.140Z,100813.00
2023-03-21T18:28:20.517Z,100807.56
2023-03-21T18:31:07.395Z,100807.59
2023-03-21T18:33:37.871Z,100811.72
2023-03-21T18:36:07.775Z,100804.25
2023-03-21T18:38:36.585Z,100801.25
2023-03-21T18:41:04.770Z,100796.66
2023-03-21T18:44:04.642Z,100807.47
2023-03-21T18:46:19.734Z,100810.78
2023-03-21T18:48:47.981Z,100811.09
2023-03-21T18:51:17.623Z,100817.97
2023-03-21T18:53:45.684Z,100816.50
2023-03-21T18:56:40.834Z,100811.50
2023-03-21T18:59:01.171Z,100823.47
2023-03-21T19:01:28.645Z,100817.38
2023-03-21T19:04:20.025Z,100824.34
2023-03-21T19:06:48.089Z,100819.34
2023-03-21T19:09:16.017Z,100834.16
2023-03-21T19:11:45.650Z,100827.50
2023-03-21T19:14:15.541Z,100835.59
2023-03-21T19:19:31.231Z,100841.78
2023-03-21T19:21:58.762Z,100845.22
2023-03-21T19:24:28.593Z,100851.81
2023-03-21T19:26:56.429Z,100850.59
2023-03-21T19:29:23.730Z,100844.22
2023-03-21T19:31:51.686Z,100849.72
2023-03-21T19:34:19.529Z,100855.47
2023-03-21T19:36:51.604Z,100854.16
2023-03-21T19:39:22.609Z,100854.81
2023-03-21T19:41:51.726Z,100854.72
2023-03-21T19:44:21.899Z,100859.25
2023-03-21T19:46:51.069Z,100859.25
2023-03-21T19:49:22.246Z,100852.53
2023-03-21T19:51:49.901Z,100851.53
2023-03-21T19:54:18.097Z,100848.72
2023-03-21T19:56:48.159Z,100863.16
2023-03-21T19:59:16.199Z,100854.66
2023-03-21T20:01:48.816Z,100861.22
2023-03-21T20:04:17.905Z,100861.22
2023-03-21T20:06:45.699Z,100864.41
2023-03-21T20:09:49.689Z,100863.53
2023-03-21T20:12:01.432Z,100865.19
2023-03-21T20:14:28.741Z,100862.53
2023-03-21T20:16:57.224Z,100871.31
2023-03-21T20:19:25.045Z,100870.88
2023-03-21T20:21:58.868Z,100868.47
2023-03-21T20:24:28.193Z,100869.28
2023-03-21T20:26:56.267Z,100865.44
2023-03-21T20:32:11.225Z,100871.81
2023-03-21T20:34:39.337Z,100874.00
2023-03-21T20:37:07.237Z,100872.84
2023-03-21T20:39:34.743Z,100877.25
2023-03-21T20:42:02.718Z,100878.41
2023-03-21T20:47:18.713Z,100878.09
2023-03-21T20:49:46.232Z,100883.03
2023-03-21T20:52:54.397Z,100885.38
2023-03-21T20:55:03.174Z,100892.78
2023-03-21T20:57:30.628Z,100900.56
2023-03-21T20:59:57.908Z,100896.69
2023-03-21T21:02:25.400Z,100898.28
2023-03-21T21:05:23.795Z,100903.06
2023-03-21T21:07:42.851Z,100899.78
2023-03-21T21:10:14.124Z,100900.72
2023-03-21T21:12:45.081Z,100905.50
2023-03-21T21:15:16.251Z,100906.31
2023-03-21T21:18:04.840Z,100904.16
2023-03-21T21:20:33.681Z,100902.09
2023-03-21T21:23:01.267Z,100897.16
2023-03-21T21:25:31.795Z,100896.19
2023-03-21T21:27:59.226Z,100896.97
2023-03-21T21:30:26.566Z,100899.34
2023-03-21T21:32:54.008Z,100906.94
2023-03-21T21:35:22.398Z,100904.66
2023-03-21T21:37:51.174Z,100902.59
2023-03-21T21:40:20.617Z,100905.06
2023-03-21T21:42:48.209Z,100911.59
2023-03-21T21:45:15.965Z,100912.41
2023-03-21T21:47:44.787Z,100911.94
2023-03-21T21:50:12.955Z,100906.34
2023-03-21T21:52:43.622Z,100906.00
2023-03-21T21:55:13.172Z,100905.91
2023-03-21T21:57:40.913Z,100915.16
2023-03-21T22:00:13.621Z,100911.84
2023-03-21T22:02:41.930Z,100908.91
2023-03-21T22:05:10.549Z,100920.00
2023-03-21T22:07:39.065Z,100914.97
2023-03-21T22:10:07.152Z,100915.41
2023-03-21T22:12:34.872Z,100915.97
2023-03-21T22:15:04.069Z,100916.34
2023-03-21T22:17:31.780Z,100910.94
2023-03-21T22:20:06.095Z,100902.28
2023-03-21T22:22:34.904Z,100908.31
2023-03-21T22:25:04.267Z,100904.78
2023-03-21T22:27:31.921Z,100910.16
2023-03-21T22:30:04.998Z,100914.28
2023-03-21T22:32:37.989Z,100908.91
2023-03-21T22:35:07.074Z,100912.81
2023-03-21T22:37:36.435Z,100916.22
2023-03-21T22:40:06.909Z,100919.03
2023-03-21T22:42:35.221Z,100917.91
2023-03-21T22:45:05.848Z,100913.78
2023-03-21T22:47:33.756Z,100918.72
2023-03-21T22:50:01.344Z,100916.19
2023-03-21T22:52:28.773Z,100921.66
2023-03-21T22:54:56.195Z,100917.53
2023-03-21T22:57:23.681Z,100912.19
2023-03-21T22:59:51.106Z,100916.03
2023-03-21T23:02:19.702Z,100907.03
2023-03-21T23:04:47.094Z,100907.50
2023-03-21T23:07:14.660Z,100910.13
2023-03-21T23:09:42.002Z,100910.13
2023-03-21T23:12:09.525Z,100905.22
2023-03-21T23:14:37.000Z,100903.41
2023-03-21T23:17:04.453Z,100907.38
2023-03-21T23:19:32.467Z,100905.91
2023-03-21T23:21:59.801Z,100908.53
2023-03-21T23:24:27.388Z,100901.47
2023-03-21T23:26:54.963Z,100912.63
2023-03-21T23:29:22.405Z,100909.44
2023-03-21T23:31:49.827Z,100908.75
2023-03-21T23:34:17.173Z,100902.59
2023-03-21T23:36:44.587Z,100901.13
2023-03-21T23:39:11.926Z,100899.41
2023-03-21T23:41:39.278Z,100899.63
2023-03-21T23:44:06.685Z,100898.25
2023-03-21T23:46:34.208Z,100910.34
2023-03-21T23:49:01.669Z,100910.22
2023-03-21T23:51:29.114Z,100901.66
2023-03-21T23:53:56.654Z,100903.81
2023-03-21T23:56:26.590Z,100901.97
2023-03-21T23:58:54.172Z,100902.44
